createdAt,value
2022-09-12T00:00:13.760Z,76.9
2022-09-12T00:01:14.778Z,76.7
2022-09-12T00:02:15.772Z,76.6
2022-09-12T00:03:16.735Z,76.3
2022-09-12T00:04:17.712Z,76.2
2022-09-12T00:05:18.749Z,76.2
2022-09-12T00:06:22.771Z,76.1
2022-09-12T00:07:20.727Z,76.3
2022-09-12T00:08:21.774Z,76.6
2022-09-12T00:09:22.733Z,76.8
2022-09-12T00:10:23.797Z,76.7
2022-09-12T00:11:24.750Z,76.9
2022-09-12T00:12:25.752Z,77.1
2022-09-12T00:13:26.740Z,77.3
2022-09-12T00:14:27.715Z,77.6
2022-09-12T00:15:28.768Z,78
2022-09-12T00:16:29.823Z,78.2
2022-09-12T00:17:30.759Z,78.5
2022-09-12T00:18:31.736Z,78.8
2022-09-12T00:19:32.998Z,79.3
2022-09-12T00:20:34.776Z,79.4
2022-09-12T00:21:35.785Z,79.5
2022-09-12T00:22:37.832Z,79.6
2022-09-12T00:23:38.759Z,79.6
2022-09-12T00:24:39.740Z,79.7
2022-09-12T00:25:40.839Z,79.8
2022-09-12T00:26:42.019Z,79.9
2022-09-12T00:27:43.805Z,79.8
2022-09-12T00:28:44.905Z,79.8
2022-09-12T00:29:45.748Z,79.8
2022-09-12T00:30:46.745Z,79.8
2022-09-12T00:31:47.805Z,80
2022-09-12T00:32:48.801Z,80.2
2022-09-12T00:33:49.774Z,80.1
2022-09-12T00:34:50.799Z,79.8
2022-09-12T00:35:51.789Z,79.8
2022-09-12T00:36:52.776Z,79.8
2022-09-12T00:37:53.815Z,79.9
2022-09-12T00:38:54.881Z,79.9
2022-09-12T00:39:55.804Z,80.1
2022-09-12T00:40:56.786Z,80.3
2022-09-12T00:41:57.846Z,80.3
2022-09-12T00:42:58.869Z,80
2022-09-12T00:43:59.787Z,79.9
2022-09-12T00:45:00.783Z,79.7
2022-09-12T00:46:01.924Z,79.6
2022-09-12T00:47:02.777Z,79.5
2022-09-12T00:48:03.803Z,79
2022-09-12T00:49:04.774Z,78.7
2022-09-12T00:50:05.857Z,78.2
2022-09-12T00:51:06.789Z,77.7
2022-09-12T00:52:07.791Z,77.6
2022-09-12T00:53:08.817Z,77.6
2022-09-12T00:54:09.821Z,77.9
2022-09-12T00:55:10.808Z,78
2022-09-12T00:56:11.831Z,78.4
2022-09-12T00:57:12.825Z,78.7
2022-09-12T00:58:13.786Z,79.3
2022-09-12T00:59:15.837Z,79.6
2022-09-12T01:00:16.936Z,79.7
2022-09-12T01:01:18.906Z,79.6
2022-09-12T01:02:19.825Z,79.7
2022-09-12T01:03:20.799Z,80
2022-09-12T01:04:21.844Z,80.2
2022-09-12T01:05:22.843Z,80.2
2022-09-12T01:06:23.818Z,80.3
2022-09-12T01:07:24.812Z,80.4
2022-09-12T01:08:25.847Z,80.3
2022-09-12T01:09:26.844Z,80.3
2022-09-12T01:10:27.824Z,80.2
2022-09-12T01:11:28.840Z,80.2
2022-09-12T01:12:29.834Z,79.9
2022-09-12T01:13:30.825Z,79.6
2022-09-12T01:14:31.863Z,79.3
2022-09-12T01:15:32.896Z,78.9
2022-09-12T01:16:33.875Z,78.6
2022-09-12T01:17:34.864Z,78.7
2022-09-12T01:18:35.850Z,79
2022-09-12T01:19:36.860Z,79.3
2022-09-12T01:20:37.881Z,79.4
2022-09-12T01:21:38.839Z,79.7
2022-09-12T01:22:39.872Z,80
2022-09-12T01:23:40.843Z,80.1
2022-09-12T01:24:41.866Z,80.3
2022-09-12T01:25:42.850Z,80.4
2022-09-12T01:26:43.870Z,80.4
2022-09-12T01:27:45.995Z,80.5
2022-09-12T01:28:47.859Z,80.5
2022-09-12T01:29:48.847Z,80.2
2022-09-12T01:30:49.892Z,80.2
2022-09-12T01:31:51.945Z,79.8
2022-09-12T01:32:52.937Z,79.6
2022-09-12T01:33:53.881Z,79.4
2022-09-12T01:34:54.850Z,79.3
2022-09-12T01:35:55.868Z,78.9
2022-09-12T01:36:56.848Z,78.7
2022-09-12T01:37:57.883Z,78.7
2022-09-12T01:38:58.878Z,78.3
2022-09-12T01:39:59.930Z,78.2
2022-09-12T01:41:00.905Z,78.2
2022-09-12T01:42:01.923Z,78.2
2022-09-12T01:43:02.947Z,78.3
2022-09-12T01:44:03.873Z,78.4
2022-09-12T01:45:04.927Z,78.5
2022-09-12T01:46:06.038Z,78.8
2022-09-12T01:47:07.889Z,78.8
2022-09-12T01:48:08.878Z,78.9
2022-09-12T01:49:09.870Z,78.8
2022-09-12T01:50:11.091Z,78.6
2022-09-12T01:51:12.881Z,78.2
2022-09-12T01:52:13.920Z,77.9
2022-09-12T01:53:14.900Z,77.6
2022-09-12T01:54:15.921Z,77.3
2022-09-12T01:55:16.921Z,77.1
2022-09-12T01:56:17.954Z,76.7
2022-09-12T01:57:18.901Z,76.4
2022-09-12T01:58:19.943Z,76.3
2022-09-12T01:59:20.903Z,76.2
2022-09-12T02:00:21.918Z,76.2
2022-09-12T02:01:22.950Z,76.2
2022-09-12T02:02:23.976Z,76.3
2022-09-12T02:03:24.957Z,76.1
2022-09-12T02:04:25.894Z,76.1
2022-09-12T02:05:26.923Z,76.2
2022-09-12T02:06:27.909Z,76.1
2022-09-12T02:07:28.909Z,76.1
2022-09-12T02:08:29.923Z,76.2
2022-09-12T02:09:30.916Z,76.2
2022-09-12T02:10:32.770Z,76.2
2022-09-12T02:11:32.919Z,76.1
2022-09-12T02:12:33.907Z,76.1
2022-09-12T02:13:34.989Z,76.4
2022-09-12T02:14:35.944Z,76.7
2022-09-12T02:15:37.003Z,76.9
2022-09-12T02:16:37.987Z,77.1
2022-09-12T02:17:38.945Z,77.2
2022-09-12T02:18:39.948Z,77.6
2022-09-12T02:19:40.925Z,77.7
2022-09-12T02:20:48.206Z,78.1
2022-09-12T02:21:42.958Z,78.6
2022-09-12T02:22:43.930Z,78.9
2022-09-12T02:23:44.953Z,79.1
2022-09-12T02:24:45.958Z,79
2022-09-12T02:25:47.271Z,78.7
2022-09-12T02:26:48.939Z,78.3
2022-09-12T02:27:49.953Z,78
2022-09-12T02:28:50.981Z,77.8
2022-09-12T02:29:51.956Z,77.7
2022-09-12T02:30:53.067Z,77.5
2022-09-12T02:31:53.960Z,77.5
2022-09-12T02:32:55.168Z,77.7
2022-09-12T02:33:56.958Z,77.6
2022-09-12T02:34:57.963Z,77.8
2022-09-12T02:35:58.972Z,77.9
2022-09-12T02:37:00.070Z,77.9
2022-09-12T02:38:02.022Z,77.9
2022-09-12T02:39:02.989Z,77.9
2022-09-12T02:40:04.265Z,78.1
2022-09-12T02:41:05.996Z,78.3
2022-09-12T02:42:06.992Z,78
2022-09-12T02:43:07.982Z,77.8
2022-09-12T02:44:08.993Z,77.6
2022-09-12T02:45:09.991Z,77.6
2022-09-12T02:46:11.029Z,77.4
2022-09-12T02:47:11.999Z,77.4
2022-09-12T02:48:13.580Z,77.4
2022-09-12T02:49:13.998Z,77.6
2022-09-12T02:50:14.981Z,77.7
2022-09-12T02:51:18.281Z,77.9
2022-09-12T02:52:16.997Z,78
2022-09-12T02:53:17.978Z,78.1
2022-09-12T02:54:18.976Z,78
2022-09-12T02:55:20.003Z,77.9
2022-09-12T02:56:20.988Z,77.6
2022-09-12T02:57:22.966Z,77.3
2022-09-12T02:58:22.989Z,77.2
2022-09-12T02:59:24.040Z,77.5
2022-09-12T03:00:25.001Z,77.2
2022-09-12T03:01:26.018Z,77.1
2022-09-12T03:02:27.013Z,77.1
2022-09-12T03:03:27.984Z,77
2022-09-12T03:04:29.013Z,76.8
2022-09-12T03:05:29.999Z,76.8
2022-09-12T03:06:31.017Z,76.8
2022-09-12T03:07:32.019Z,77
2022-09-12T03:08:32.996Z,77
2022-09-12T03:09:34.029Z,77.3
2022-09-12T03:10:34.999Z,77.6
2022-09-12T03:11:36.060Z,78
2022-09-12T03:12:37.025Z,78.2
2022-09-12T03:13:38.013Z,78.2
2022-09-12T03:14:39.045Z,78.3
2022-09-12T03:15:40.031Z,78.3
2022-09-12T03:16:41.079Z,78.6
2022-09-12T03:17:42.030Z,78.9
2022-09-12T03:18:43.017Z,79.4
2022-09-12T03:19:44.020Z,79.7
2022-09-12T03:20:45.087Z,80
2022-09-12T03:21:46.021Z,80.3
2022-09-12T03:22:50.537Z,80.4
2022-09-12T03:23:48.018Z,80.1
2022-09-12T03:24:49.038Z,79.9
2022-09-12T03:25:50.045Z,79.7
2022-09-12T03:26:51.021Z,79.5
2022-09-12T03:27:52.052Z,79.5
2022-09-12T03:28:53.035Z,79.4
2022-09-12T03:29:54.087Z,79.4
2022-09-12T03:30:55.105Z,79.5
2022-09-12T03:31:56.042Z,79.4
2022-09-12T03:32:57.069Z,79.3
2022-09-12T03:33:58.031Z,79.1
2022-09-12T03:34:59.049Z,79.2
2022-09-12T03:36:00.094Z,79.1
2022-09-12T03:37:01.048Z,79
2022-09-12T03:38:02.093Z,78.9
2022-09-12T03:39:03.062Z,78.5
2022-09-12T03:40:04.359Z,78.1
2022-09-12T03:41:06.072Z,77.9
2022-09-12T03:42:07.074Z,77.7
2022-09-12T03:43:08.055Z,77.5
2022-09-12T03:44:09.075Z,77.3
2022-09-12T03:45:10.190Z,77.3
2022-09-12T03:46:12.078Z,77.2
2022-09-12T03:47:13.078Z,77.2
2022-09-12T03:48:14.059Z,77.2
2022-09-12T03:49:15.116Z,77
2022-09-12T03:50:16.059Z,76.9
2022-09-12T03:51:17.058Z,76.8
2022-09-12T03:52:18.076Z,76.8
2022-09-12T03:53:19.096Z,76.9
2022-09-12T03:54:20.110Z,77
2022-09-12T03:55:21.066Z,77.1
2022-09-12T03:56:22.064Z,77.2
2022-09-12T03:57:23.059Z,77.3
2022-09-12T03:58:24.090Z,77.6
2022-09-12T03:59:25.109Z,78
2022-09-12T04:00:26.170Z,78
2022-09-12T04:01:27.127Z,77.9
2022-09-12T04:02:28.115Z,78.1
2022-09-12T04:03:29.080Z,78.3
2022-09-12T04:04:30.107Z,78.3
2022-09-12T04:05:31.114Z,78.5
2022-09-12T04:06:32.081Z,78.9
2022-09-12T04:07:33.100Z,79.4
2022-09-12T04:08:34.076Z,79.9
2022-09-12T04:09:35.094Z,80.5
2022-09-12T04:10:36.125Z,80.8
2022-09-12T04:11:37.185Z,80.9
2022-09-12T04:12:38.101Z,81
2022-09-12T04:13:39.104Z,80.8
2022-09-12T04:14:40.090Z,80.5
2022-09-12T04:15:41.116Z,80.3
2022-09-12T04:16:42.601Z,80.2
2022-09-12T04:17:44.110Z,80.2
2022-09-12T04:18:45.245Z,80.1
2022-09-12T04:19:46.121Z,80.2
2022-09-12T04:20:47.137Z,80.4
2022-09-12T04:21:48.108Z,80.5
2022-09-12T04:22:49.122Z,80.6
2022-09-12T04:23:50.106Z,80.8
2022-09-12T04:24:51.122Z,80.7
2022-09-12T04:25:52.189Z,80.6
2022-09-12T04:26:53.124Z,80.7
2022-09-12T04:27:54.113Z,80.8
2022-09-12T04:28:55.138Z,80.5
2022-09-12T04:29:56.128Z,80.3
2022-09-12T04:30:57.240Z,80.3
2022-09-12T04:31:58.161Z,80.1
2022-09-12T04:32:59.126Z,80.2
2022-09-12T04:34:00.135Z,80.5
2022-09-12T04:38:25.134Z,81.4
2022-09-12T04:39:26.134Z,81.7
2022-09-12T04:40:27.157Z,82
2022-09-12T04:41:28.152Z,82.3
2022-09-12T04:42:29.205Z,82.1
2022-09-12T04:43:30.161Z,81.9
2022-09-12T04:44:31.140Z,81.5
2022-09-12T04:45:32.199Z,81.2
2022-09-12T04:46:33.176Z,80.9
2022-09-12T04:47:34.173Z,80.2
2022-09-12T04:48:35.186Z,80
2022-09-12T04:49:36.144Z,79.8
2022-09-12T04:50:37.149Z,79.7
2022-09-12T04:51:38.197Z,79.4
2022-09-12T04:52:39.173Z,79
2022-09-12T04:53:40.162Z,78.7
2022-09-12T04:54:41.221Z,78.5
2022-09-12T04:55:42.355Z,78.3
2022-09-12T04:56:44.926Z,78.3
2022-09-12T04:57:46.216Z,78.3
2022-09-12T04:58:47.245Z,78.3
2022-09-12T04:59:48.206Z,78.2
2022-09-12T05:00:49.201Z,78.2
2022-09-12T05:01:50.310Z,78.1
2022-09-12T05:02:51.190Z,78.4
2022-09-12T05:03:52.268Z,78.4
2022-09-12T05:04:53.184Z,78.6
2022-09-12T05:05:56.412Z,78.5
2022-09-12T05:06:55.203Z,77.9
2022-09-12T05:07:56.184Z,77.7
2022-09-12T05:08:57.201Z,77.9
2022-09-12T05:09:58.259Z,78.2
2022-09-12T05:10:59.216Z,78.2
2022-09-12T05:12:04.048Z,78.3
2022-09-12T05:13:01.761Z,78.2
2022-09-12T05:14:03.185Z,78.3
2022-09-12T05:15:04.324Z,78.1
2022-09-12T05:16:06.227Z,78
2022-09-12T05:17:07.242Z,78.3
2022-09-12T05:18:08.297Z,78.1
2022-09-12T05:19:09.196Z,77.7
2022-09-12T05:20:10.224Z,77.7
2022-09-12T05:21:11.201Z,77.6
2022-09-12T05:22:12.259Z,77.2
2022-09-12T05:23:13.239Z,76.8
2022-09-12T05:24:14.525Z,76.3
2022-09-12T05:25:16.244Z,76.1
2022-09-12T05:26:17.219Z,76.5
2022-09-12T05:27:18.220Z,76.8
2022-09-12T05:28:19.256Z,76.7
2022-09-12T05:29:20.221Z,76.6
2022-09-12T05:30:21.241Z,76.4
2022-09-12T05:31:22.230Z,75.9
2022-09-12T05:32:23.242Z,74.6
2022-09-12T05:33:25.147Z,73.6
2022-09-12T05:34:25.266Z,72.9
2022-09-12T05:35:26.207Z,72.3
2022-09-12T05:36:27.365Z,71.9
2022-09-12T05:37:29.249Z,70.6
2022-09-12T05:38:30.219Z,68.9
2022-09-12T05:39:31.299Z,66.5
2022-09-12T05:40:32.248Z,64.2
2022-09-12T05:41:33.241Z,62.7
2022-09-12T05:42:34.243Z,61.9
2022-09-12T05:43:35.242Z,60.9
2022-09-12T05:44:36.334Z,60.4
2022-09-12T05:45:37.464Z,59.5
2022-09-12T05:46:39.653Z,59.1
2022-09-12T05:47:41.285Z,58
2022-09-12T05:48:42.422Z,57.1
2022-09-12T05:49:44.361Z,56.8
2022-09-12T05:50:46.281Z,57
2022-09-12T05:51:47.282Z,56.5
2022-09-12T05:52:48.327Z,56.3
2022-09-12T05:53:49.292Z,56.2
2022-09-12T05:54:50.347Z,56.1
2022-09-12T05:55:51.256Z,55.4
2022-09-12T05:56:52.293Z,55.7
2022-09-12T05:57:53.268Z,56.1
2022-09-12T05:58:55.388Z,56
2022-09-12T05:59:57.303Z,56
2022-09-12T06:00:58.365Z,56.7
2022-09-12T06:01:59.327Z,56.9
2022-09-12T06:03:00.362Z,56.7
2022-09-12T06:04:01.297Z,56.3
2022-09-12T06:05:02.323Z,56.2
2022-09-12T06:06:03.306Z,56.4
2022-09-12T06:07:04.350Z,56
2022-09-12T06:08:05.356Z,55.6
2022-09-12T06:09:06.277Z,55.2
2022-09-12T06:10:07.315Z,54.4
2022-09-12T06:11:08.358Z,53.6
2022-09-12T06:12:09.319Z,52.3
2022-09-12T06:13:10.325Z,51.2
2022-09-12T06:14:11.317Z,50.6
2022-09-12T06:15:12.391Z,50.3
2022-09-12T06:16:13.315Z,50.9
2022-09-12T06:17:14.649Z,51.8
2022-09-12T06:18:16.379Z,52.6
2022-09-12T06:19:17.295Z,52.7
2022-09-12T06:20:18.294Z,52.4
2022-09-12T06:21:19.557Z,52.9
2022-09-12T06:22:21.315Z,53.9
2022-09-12T06:23:22.410Z,54.4
2022-09-12T06:24:24.552Z,55
2022-09-12T06:25:26.363Z,55.3
2022-09-12T06:26:27.370Z,55.4
2022-09-12T06:27:28.315Z,55
2022-09-12T06:28:30.470Z,54.2
2022-09-12T06:29:32.360Z,53.4
2022-09-12T06:30:33.368Z,54
2022-09-12T06:31:34.652Z,54.5
2022-09-12T06:32:36.354Z,54.9
2022-09-12T06:33:37.425Z,54.6
2022-09-12T06:34:38.348Z,53.1
2022-09-12T06:35:39.457Z,52.1
2022-09-12T06:36:41.335Z,51.8
2022-09-12T06:37:42.327Z,52.3
2022-09-12T06:38:43.485Z,52.9
2022-09-12T06:39:44.417Z,53.4
2022-09-12T06:40:45.434Z,53.9
2022-09-12T06:41:46.318Z,54.5
2022-09-12T06:42:47.344Z,54.9
2022-09-12T06:43:50.044Z,54.6
2022-09-12T06:44:51.377Z,53.8
2022-09-12T06:45:52.453Z,53.5
2022-09-12T06:46:53.347Z,53.7
2022-09-12T06:47:54.665Z,53.8
2022-09-12T06:48:56.375Z,54.4
2022-09-12T06:49:57.702Z,55.4
2022-09-12T06:50:59.375Z,57.2
2022-09-12T06:52:00.727Z,58.4
2022-09-12T06:53:02.388Z,59
2022-09-12T06:54:03.377Z,59.7
2022-09-12T06:55:05.466Z,60.3
2022-09-12T06:56:06.904Z,60.4
2022-09-12T06:57:08.353Z,59.9
2022-09-12T06:58:09.628Z,60
2022-09-12T06:59:11.412Z,59.3
2022-09-12T07:00:12.505Z,58.8
2022-09-12T07:01:14.487Z,57.4
2022-09-12T07:02:15.712Z,55.8
2022-09-12T07:03:17.949Z,54.9
2022-09-12T07:04:19.536Z,53.7
2022-09-12T07:05:24.930Z,51.2
2022-09-12T07:06:26.655Z,50.2
2022-09-12T07:07:28.420Z,48.9
2022-09-12T07:08:31.088Z,48.1
2022-09-12T07:09:32.440Z,48.1
2022-09-12T07:10:34.017Z,47.7
2022-09-12T07:11:35.464Z,47.7
2022-09-12T07:12:36.964Z,46.7
2022-09-12T07:13:38.439Z,47
2022-09-12T07:14:39.447Z,48.6
2022-09-12T07:15:40.406Z,50.4
2022-09-12T07:16:41.570Z,50.7
2022-09-12T07:17:43.114Z,50.3
2022-09-12T07:18:44.465Z,50
2022-09-12T07:19:45.473Z,49.5
2022-09-12T07:20:46.863Z,48.6
2022-09-12T07:21:48.399Z,47.5
2022-09-12T07:22:49.476Z,46.6
2022-09-12T07:23:50.406Z,46.3
2022-09-12T07:24:51.589Z,46.9
2022-09-12T07:25:53.451Z,47.4
2022-09-12T07:26:54.474Z,47
2022-09-12T07:27:55.516Z,46.1
2022-09-12T07:29:08.174Z,45.2
2022-09-12T07:29:59.587Z,44.7
2022-09-12T07:31:01.568Z,44.1
2022-09-12T07:32:03.508Z,43.6
2022-09-12T07:33:05.414Z,43.1
2022-09-12T07:34:06.531Z,42.4
2022-09-12T07:35:08.713Z,42.1
2022-09-12T07:36:10.614Z,41.3
2022-09-12T07:37:12.444Z,41
2022-09-12T07:38:13.429Z,41.6
2022-09-12T07:39:14.464Z,41.5
2022-09-12T07:40:15.728Z,40.9
2022-09-12T07:41:17.511Z,41
2022-09-12T07:42:18.463Z,42.6
2022-09-12T07:43:19.448Z,44.1
2022-09-12T07:44:20.433Z,45.1
2022-09-12T07:45:21.462Z,45.6
2022-09-12T07:46:22.488Z,46
2022-09-12T07:47:23.452Z,45.6
2022-09-12T07:48:24.423Z,45.6
2022-09-12T07:49:25.435Z,45.1
2022-09-12T07:50:26.491Z,45
2022-09-12T07:51:27.489Z,45.1
2022-09-12T07:52:28.446Z,45.2
2022-09-12T07:53:29.482Z,45.5
2022-09-12T07:54:30.459Z,45.7
2022-09-12T07:55:31.539Z,45.9
2022-09-12T07:56:35.770Z,46.3
2022-09-12T07:57:33.534Z,46.4
2022-09-12T07:58:34.473Z,45.9
2022-09-12T07:59:51.846Z,45
2022-09-12T08:00:36.571Z,43.3
2022-09-12T08:01:37.592Z,42.4
2022-09-12T08:02:38.590Z,41.3
2022-09-12T08:03:39.519Z,40.4
2022-09-12T08:04:40.497Z,39.7
2022-09-12T08:05:41.530Z,40.3
2022-09-12T08:06:42.499Z,40.6
2022-09-12T08:07:43.468Z,40.6
2022-09-12T08:08:44.485Z,40.1
2022-09-12T08:09:45.537Z,39.4
2022-09-12T08:10:46.485Z,39
2022-09-12T08:11:47.521Z,39.1
2022-09-12T08:12:48.522Z,39.8
2022-09-12T08:13:53.049Z,40.8
2022-09-12T08:14:50.567Z,41.5
2022-09-12T08:15:51.561Z,41.6
2022-09-12T08:16:52.500Z,41.5
2022-09-12T08:17:53.521Z,41.4
2022-09-12T08:18:55.628Z,41.3
2022-09-12T08:19:57.547Z,41.1
2022-09-12T08:20:58.554Z,40.4
2022-09-12T08:21:59.496Z,40.6
2022-09-12T08:23:00.514Z,41.8
2022-09-12T08:24:01.507Z,42.6
2022-09-12T08:25:02.646Z,42.8
2022-09-12T08:26:06.247Z,43
2022-09-12T08:27:06.522Z,42.3
2022-09-12T08:28:07.503Z,41.5
2022-09-12T08:29:08.560Z,40.4
2022-09-12T08:30:09.561Z,39.3
2022-09-12T08:31:10.690Z,39
2022-09-12T08:32:11.537Z,39
2022-09-12T08:33:12.523Z,38.7
2022-09-12T08:34:13.511Z,39.3
2022-09-12T08:35:14.514Z,39.6
2022-09-12T08:36:15.616Z,40.4
2022-09-12T08:37:16.564Z,41.6
2022-09-12T08:38:17.528Z,42.6
2022-09-12T08:39:18.537Z,43
2022-09-12T08:40:19.674Z,42.9
2022-09-12T08:41:20.568Z,43.1
2022-09-12T08:42:21.641Z,43.4
2022-09-12T08:43:22.591Z,43.4
2022-09-12T08:44:23.567Z,43.3
2022-09-12T08:45:24.598Z,43.2
2022-09-12T08:46:25.796Z,43.4
2022-09-12T08:47:27.575Z,43.9
2022-09-12T08:48:28.550Z,44.1
2022-09-12T08:49:29.576Z,42.8
2022-09-12T08:50:30.539Z,41.5
2022-09-12T08:51:31.596Z,40.1
2022-09-12T08:52:32.775Z,39.3
2022-09-12T08:53:34.559Z,38.9
2022-09-12T08:54:35.570Z,38.4
2022-09-12T08:55:36.545Z,38.2
2022-09-12T08:56:37.587Z,38.7
2022-09-12T08:57:38.576Z,39.2
2022-09-12T08:58:39.610Z,39.7
2022-09-12T08:59:40.584Z,40.8
2022-09-12T09:00:41.586Z,41.6
2022-09-12T09:01:42.701Z,41.9
2022-09-12T09:02:43.729Z,43.1
2022-09-12T09:03:44.644Z,43
2022-09-12T09:04:45.570Z,42.6
2022-09-12T09:05:46.619Z,41.7
2022-09-12T09:06:47.633Z,40.2
2022-09-12T09:07:48.647Z,40.1
2022-09-12T09:08:49.614Z,39
2022-09-12T09:09:50.597Z,38.4
2022-09-12T09:10:51.627Z,39.4
2022-09-12T09:11:52.583Z,39.8
2022-09-12T09:12:53.650Z,40.3
2022-09-12T09:13:54.591Z,40.3
2022-09-12T09:14:55.594Z,40
2022-09-12T09:15:56.641Z,39.8
2022-09-12T09:16:57.594Z,40.2
2022-09-12T09:17:58.638Z,41
2022-09-12T09:18:59.607Z,41.9
2022-09-12T09:20:00.604Z,42.5
2022-09-12T09:21:01.597Z,43.1
2022-09-12T09:22:03.044Z,42.8
2022-09-12T09:23:04.611Z,42.6
2022-09-12T09:24:05.648Z,42.8
2022-09-12T09:25:06.653Z,43.2
2022-09-12T09:26:07.661Z,44
2022-09-12T09:27:23.815Z,43.8
2022-09-12T09:28:09.648Z,43.2
2022-09-12T09:29:10.602Z,43.7
2022-09-12T09:30:11.660Z,43.6
2022-09-12T09:31:12.648Z,43.7
2022-09-12T09:32:13.687Z,43.4
2022-09-12T09:33:14.651Z,43.5
2022-09-12T09:34:15.604Z,43.7
2022-09-12T09:35:16.647Z,44.4
2022-09-12T09:36:17.643Z,44.5
2022-09-12T09:37:18.692Z,45
2022-09-12T09:38:19.642Z,44.3
2022-09-12T09:39:20.677Z,44.1
2022-09-12T09:40:21.715Z,43.9
2022-09-12T09:41:22.676Z,43.9
2022-09-12T09:42:23.711Z,44.3
2022-09-12T09:43:24.641Z,44.7
2022-09-12T09:44:25.633Z,45.3
2022-09-12T09:45:26.633Z,46.1
2022-09-12T09:46:27.739Z,46.1
2022-09-12T09:47:28.717Z,44.6
2022-09-12T09:48:29.649Z,44.2
2022-09-12T09:49:30.698Z,42.9
2022-09-12T09:50:31.653Z,41.8
2022-09-12T09:51:32.714Z,41.2
2022-09-12T09:52:33.698Z,40.9
2022-09-12T09:53:34.735Z,41.8
2022-09-12T09:54:35.679Z,41.8
2022-09-12T09:55:36.716Z,41.8
2022-09-12T09:56:37.694Z,42.1
2022-09-12T09:57:38.658Z,41.8
2022-09-12T09:58:39.724Z,41.7
2022-09-12T09:59:40.739Z,41.7
2022-09-12T10:00:41.675Z,41.7
2022-09-12T10:01:42.723Z,42.2
2022-09-12T10:02:44.855Z,42.9
2022-09-12T10:03:46.769Z,43.2
2022-09-12T10:04:47.708Z,43.5
2022-09-12T10:05:48.686Z,44.3
2022-09-12T10:06:49.689Z,45
2022-09-12T10:07:50.763Z,45.6
2022-09-12T10:08:51.709Z,45.7
2022-09-12T10:09:52.717Z,46.3
2022-09-12T10:10:53.685Z,46.8
2022-09-12T10:11:54.781Z,47.1
2022-09-12T10:12:55.676Z,47
2022-09-12T10:13:56.728Z,47.5
2022-09-12T10:14:57.763Z,48
2022-09-12T10:15:58.823Z,48.3
2022-09-12T10:16:59.815Z,48.7
2022-09-12T10:18:01.731Z,48.6
2022-09-12T10:19:02.783Z,48.2
2022-09-12T10:20:20.240Z,48.4
2022-09-12T10:21:05.693Z,48.8
2022-09-12T10:22:06.745Z,48.8
2022-09-12T10:23:07.768Z,48.6
2022-09-12T10:24:08.712Z,48.5
2022-09-12T10:25:09.751Z,48.7
2022-09-12T10:26:10.695Z,48.9
2022-09-12T10:27:11.743Z,49.5
2022-09-12T10:28:12.711Z,50.1
2022-09-12T10:29:13.729Z,50.4
2022-09-12T10:30:14.825Z,50.3
2022-09-12T10:31:16.840Z,49.6
2022-09-12T10:32:17.755Z,49
2022-09-12T10:33:18.756Z,48.7
2022-09-12T10:34:19.756Z,47.9
2022-09-12T10:35:20.828Z,46.7
2022-09-12T10:36:21.757Z,45.6
2022-09-12T10:37:22.735Z,45.1
2022-09-12T10:38:23.791Z,44.8
2022-09-12T10:39:24.748Z,44.9
2022-09-12T10:40:25.757Z,45.1
2022-09-12T10:41:26.722Z,45.2
2022-09-12T10:42:27.806Z,44.2
2022-09-12T10:43:28.749Z,44.1
2022-09-12T10:44:29.753Z,43.6
2022-09-12T10:45:30.780Z,43.6
2022-09-12T10:46:31.815Z,43.3
2022-09-12T10:47:32.754Z,42.7
2022-09-12T10:48:33.738Z,43.6
2022-09-12T10:49:34.751Z,42.8
2022-09-12T10:50:35.786Z,42
2022-09-12T10:51:36.807Z,41.7
2022-09-12T10:52:37.755Z,41.6
2022-09-12T10:53:38.779Z,40.7
2022-09-12T10:54:39.764Z,41
2022-09-12T10:55:40.749Z,41.1
2022-09-12T10:56:41.842Z,41.2
2022-09-12T10:57:42.755Z,41.7
2022-09-12T10:58:43.769Z,42.6
2022-09-12T10:59:44.768Z,43.3
2022-09-12T11:00:45.768Z,44
2022-09-12T11:01:46.908Z,44.1
2022-09-12T11:02:47.822Z,44
2022-09-12T11:03:48.819Z,43.9
2022-09-12T11:04:49.784Z,44.1
2022-09-12T11:05:50.786Z,44.4
2022-09-12T11:06:51.845Z,44.2
2022-09-12T11:07:52.813Z,44.2
2022-09-12T11:08:53.859Z,43.8
2022-09-12T11:09:54.795Z,43.5
2022-09-12T11:10:55.794Z,43.7
2022-09-12T11:11:56.889Z,43.4
2022-09-12T11:12:57.823Z,43.2
2022-09-12T11:13:58.785Z,42.6
2022-09-12T11:14:59.827Z,42.7
2022-09-12T11:16:00.942Z,42.8
2022-09-12T11:17:01.857Z,42.8
2022-09-12T11:18:02.887Z,43.3
2022-09-12T11:19:03.810Z,43.7
2022-09-12T11:20:04.950Z,43.9
2022-09-12T11:21:06.820Z,43.9
2022-09-12T11:22:07.896Z,44.7
2022-09-12T11:23:08.843Z,44.9
2022-09-12T11:24:09.839Z,44
2022-09-12T11:25:10.840Z,43.6
2022-09-12T11:26:11.812Z,43
2022-09-12T11:27:13.284Z,42.9
2022-09-12T11:28:14.822Z,44
2022-09-12T11:29:15.818Z,44.6
2022-09-12T11:30:17.021Z,44.7
2022-09-12T11:31:18.890Z,44.4
2022-09-12T11:32:19.851Z,44.7
2022-09-12T11:33:20.927Z,43.9
2022-09-12T11:34:21.803Z,43.9
2022-09-12T11:35:22.876Z,44.3
2022-09-12T11:36:23.863Z,44.2
2022-09-12T11:37:24.836Z,44.3
2022-09-12T11:38:25.849Z,44.4
2022-09-12T11:39:26.856Z,44.5
2022-09-12T11:40:28.044Z,44.6
2022-09-12T11:41:29.860Z,44.8
2022-09-12T11:42:30.862Z,44.5
2022-09-12T11:43:32.119Z,44.5
2022-09-12T11:44:33.875Z,44.7
2022-09-12T11:45:34.915Z,45.1
2022-09-12T11:46:35.885Z,45.2
2022-09-12T11:47:37.028Z,45.3
2022-09-12T11:48:39.257Z,45.3
2022-09-12T11:49:40.917Z,45.2
2022-09-12T11:50:41.863Z,44.4
2022-09-12T11:51:43.789Z,43.2
2022-09-12T11:52:44.907Z,41.3
2022-09-12T11:53:46.094Z,40.3
2022-09-12T11:54:51.465Z,39.4
2022-09-12T11:55:49.042Z,38.6
2022-09-12T11:56:50.905Z,39.7
2022-09-12T11:57:51.904Z,39
2022-09-12T11:58:53.554Z,39.4
2022-09-12T11:59:54.900Z,38.6
2022-09-12T12:00:55.892Z,37.5
2022-09-12T12:01:56.908Z,36.3
2022-09-12T12:02:57.911Z,36.4
2022-09-12T12:03:58.990Z,36.8
2022-09-12T12:04:59.953Z,38.1
2022-09-12T12:06:00.945Z,38.2
2022-09-12T12:07:01.950Z,37.5
2022-09-12T12:08:03.033Z,37.7
2022-09-12T12:09:04.888Z,37.7
2022-09-12T12:10:06.022Z,38.4
2022-09-12T12:11:06.895Z,39.3
2022-09-12T12:12:08.033Z,40.1
2022-09-12T12:13:13.975Z,40.4
2022-09-12T12:14:10.903Z,40.7
2022-09-12T12:15:11.908Z,41.2
2022-09-12T12:16:13.002Z,41.9
2022-09-12T12:17:14.082Z,40.9
2022-09-12T12:18:15.945Z,41.5
2022-09-12T12:19:16.907Z,41.8
2022-09-12T12:20:18.062Z,41.3
2022-09-12T12:21:19.911Z,41.2
2022-09-12T12:22:20.925Z,41.4
2022-09-12T12:23:21.977Z,41.4
2022-09-12T12:24:22.912Z,41.9
2022-09-12T12:25:27.549Z,41.8
2022-09-12T12:26:24.967Z,42.3
2022-09-12T12:27:25.986Z,42
2022-09-12T12:28:26.976Z,42
2022-09-12T12:29:28.801Z,41.7
2022-09-12T12:30:29.927Z,40.9
2022-09-12T12:31:30.967Z,40.9
2022-09-12T12:32:31.932Z,41.3
2022-09-12T12:33:33.022Z,41.7
2022-09-12T12:34:34.220Z,41.7
2022-09-12T12:35:35.944Z,41.7
2022-09-12T12:36:37.001Z,42
2022-09-12T12:37:37.954Z,42.3
2022-09-12T12:38:39.002Z,42.4
2022-09-12T12:39:40.249Z,42.9
2022-09-12T12:40:41.991Z,43.2
2022-09-12T12:41:42.944Z,43.2
2022-09-12T12:42:43.990Z,43.3
2022-09-12T12:43:45.093Z,43.9
2022-09-12T12:44:45.987Z,44.4
2022-09-12T12:45:46.957Z,44.5
2022-09-12T12:46:47.969Z,44.4
2022-09-12T12:47:48.952Z,44.6
2022-09-12T12:48:49.957Z,45
2022-09-12T12:49:51.001Z,45.4
2022-09-12T12:50:51.943Z,45.5
2022-09-12T12:51:53.022Z,45.9
2022-09-12T12:52:54.214Z,46.3
2022-09-12T12:53:55.969Z,46.6
2022-09-12T12:54:57.019Z,47.3
2022-09-12T12:55:58.848Z,46.7
2022-09-12T12:57:00.005Z,46.2
2022-09-12T12:58:01.030Z,46.4
2022-09-12T12:59:01.965Z,46.7
2022-09-12T13:00:03.195Z,47.1
2022-09-12T13:01:05.370Z,47.2
2022-09-12T13:02:07.116Z,46.7
2022-09-12T13:03:08.991Z,46.3
2022-09-12T13:04:09.982Z,46
2022-09-12T13:05:11.003Z,46
2022-09-12T13:06:12.065Z,46.3
2022-09-12T13:07:13.018Z,47
2022-09-12T13:08:13.991Z,47
2022-09-12T13:09:14.984Z,46.7
2022-09-12T13:10:16.443Z,46.6
2022-09-12T13:11:18.037Z,46.4
2022-09-12T13:12:19.025Z,46.2
2022-09-12T13:13:20.751Z,46.6
2022-09-12T13:14:21.997Z,46.9
2022-09-12T13:15:22.997Z,46.4
2022-09-12T13:16:23.981Z,46.3
2022-09-12T13:17:25.027Z,46
2022-09-12T13:18:26.008Z,45.6
2022-09-12T13:19:28.201Z,45.6
2022-09-12T13:20:30.216Z,45.4
2022-09-12T13:21:31.024Z,46.1
2022-09-12T13:22:32.041Z,46.8
2022-09-12T13:28:21.145Z,47.1
2022-09-12T13:29:22.115Z,47.1
2022-09-12T13:30:23.219Z,46.9
2022-09-12T13:31:25.152Z,46.9
2022-09-12T13:32:26.074Z,47.1
2022-09-12T13:33:27.145Z,47.3
2022-09-12T13:34:29.053Z,47.5
2022-09-12T13:35:30.048Z,48.3
2022-09-12T13:36:31.264Z,47.7
2022-09-12T13:37:33.078Z,47.4
2022-09-12T13:38:34.090Z,47.1
2022-09-12T13:39:35.091Z,46.7
2022-09-12T13:40:36.081Z,46.9
2022-09-12T13:41:37.092Z,46.5
2022-09-12T13:42:38.061Z,46.9
2022-09-12T13:43:39.094Z,47.4
2022-09-12T13:44:40.129Z,47
2022-09-12T13:45:41.061Z,47.3
2022-09-12T13:46:42.067Z,47.7